createdAt,value
2018-06-05T00:01:02.978Z,100561.00
2018-06-05T00:03:33.186Z,100561.00
2018-06-05T00:06:04.031Z,100565.00
2018-06-05T00:08:33.980Z,100557.00
2018-06-05T00:11:04.366Z,100555.00
2018-06-05T00:13:35.041Z,100549.00
2018-06-05T00:16:05.914Z,100547.00
2018-06-05T00:18:36.439Z,100544.00
2018-06-05T00:21:07.140Z,100543.00
2018-06-05T00:23:37.493Z,100541.00
2018-06-05T00:26:08.405Z,100546.00
2018-06-05T00:28:38.834Z,100539.00
2018-06-05T00:31:08.764Z,100538.00
2018-06-05T00:33:39.035Z,100545.00
2018-06-05T00:36:09.048Z,100546.00
2018-06-05T00:38:39.064Z,100544.00
2018-06-05T00:41:09.608Z,100541.00
2018-06-05T00:43:39.709Z,100545.00
2018-06-05T00:46:09.653Z,100545.00
2018-06-05T00:48:40.024Z,100546.00
2018-06-05T00:52:14.805Z,100546.00
2018-06-05T00:54:44.825Z,100534.00
2018-06-05T00:57:14.967Z,100536.00
2018-06-05T00:59:45.343Z,100541.00
2018-06-05T01:02:16.073Z,100537.00
2018-06-05T01:04:46.643Z,100533.00
2018-06-05T01:07:16.912Z,100537.00
2018-06-05T01:09:47.504Z,100534.00
2018-06-05T01:12:17.939Z,100529.00
2018-06-05T01:14:48.420Z,100527.00
2018-06-05T01:17:18.938Z,100529.00
2018-06-05T01:19:49.793Z,100531.00
2018-06-05T01:22:20.076Z,100529.00
2018-06-05T01:24:50.660Z,100527.00
2018-06-05T01:27:21.468Z,100536.00
2018-06-05T01:29:52.544Z,100533.00
2018-06-05T01:32:22.743Z,100532.00
2018-06-05T01:34:52.917Z,100527.00
2018-06-05T01:37:23.090Z,100534.00
2018-06-05T01:39:53.439Z,100523.00
2018-06-05T01:42:24.243Z,100528.00
2018-06-05T01:44:54.705Z,100522.00
2018-06-05T01:47:25.439Z,100524.00
2018-06-05T01:49:55.853Z,100525.00
2018-06-05T01:52:26.341Z,100525.00
2018-06-05T01:54:57.131Z,100527.00
2018-06-05T01:57:27.485Z,100531.00
2018-06-05T01:59:57.770Z,100526.00
2018-06-05T02:02:28.548Z,100525.00
2018-06-05T02:04:59.227Z,100525.00
2018-06-05T02:07:29.179Z,100524.00
2018-06-05T02:10:00.388Z,100520.00
2018-06-05T02:12:30.740Z,100522.00
2018-06-05T02:15:00.904Z,100521.00
2018-06-05T02:17:32.026Z,100511.00
2018-06-05T02:20:02.202Z,100522.00
2018-06-05T02:22:32.732Z,100520.00
2018-06-05T02:25:03.194Z,100529.00
2018-06-05T02:27:33.866Z,100531.00
2018-06-05T02:30:04.197Z,100522.00
2018-06-05T02:32:34.698Z,100529.00
2018-06-05T02:35:05.640Z,100527.00
2018-06-05T02:37:35.984Z,100528.00
2018-06-05T02:40:07.620Z,100530.00
2018-06-05T02:42:37.880Z,100526.00
2018-06-05T02:45:08.021Z,100527.00
2018-06-05T02:47:38.286Z,100526.00
2018-06-05T02:50:09.084Z,100527.00
2018-06-05T02:52:39.253Z,100530.00
2018-06-05T02:55:09.300Z,100525.00
2018-06-05T02:57:39.409Z,100528.00
2018-06-05T03:00:09.323Z,100531.00
2018-06-05T03:02:39.470Z,100532.00
2018-06-05T03:05:09.670Z,100533.00
2018-06-05T03:07:39.880Z,100532.00
2018-06-05T03:10:10.921Z,100533.00
2018-06-05T03:12:41.206Z,100538.00
2018-06-05T03:15:11.460Z,100540.00
2018-06-05T03:17:41.671Z,100544.00
2018-06-05T03:20:11.756Z,100543.00
2018-06-05T03:22:42.039Z,100541.00
2018-06-05T03:25:11.841Z,100541.00
2018-06-05T03:27:42.368Z,100539.00
2018-06-05T03:30:12.545Z,100540.00
2018-06-05T03:32:42.751Z,100538.00
2018-06-05T03:35:12.956Z,100541.00
2018-06-05T03:37:43.171Z,100547.00
2018-06-05T03:40:13.039Z,100543.00
2018-06-05T03:42:43.062Z,100548.00
2018-06-05T03:45:13.175Z,100549.00
2018-06-05T03:47:42.995Z,100555.00
2018-06-05T03:50:13.202Z,100553.00
2018-06-05T03:52:43.415Z,100554.00
2018-06-05T03:55:13.644Z,100550.00
2018-06-05T03:57:43.736Z,100553.00
2018-06-05T04:00:13.661Z,100552.00
2018-06-05T04:02:43.773Z,100553.00
2018-06-05T04:05:13.855Z,100557.00
2018-06-05T04:07:43.748Z,100553.00
2018-06-05T04:10:13.772Z,100552.00
2018-06-05T04:12:43.623Z,100549.00
2018-06-05T04:15:13.713Z,100550.00
2018-06-05T04:17:43.613Z,100551.00
2018-06-05T04:20:13.606Z,100551.00
2018-06-05T04:22:43.910Z,100549.00
2018-06-05T04:25:13.756Z,100552.00
2018-06-05T04:27:44.205Z,100560.00
2018-06-05T04:30:14.346Z,100559.00
2018-06-05T04:32:44.353Z,100562.00
2018-06-05T04:35:14.750Z,100560.00
2018-06-05T04:37:44.616Z,100566.00
2018-06-05T04:40:14.780Z,100565.00
2018-06-05T04:42:44.961Z,100569.00
2018-06-05T04:45:15.156Z,100563.00
2018-06-05T04:47:45.160Z,100567.00
2018-06-05T04:50:15.016Z,100576.00
2018-06-05T04:52:45.027Z,100581.00
2018-06-05T04:55:15.426Z,100579.00
2018-06-05T04:57:45.689Z,100576.00
2018-06-05T05:00:15.637Z,100575.00
2018-06-05T05:02:45.960Z,100572.00
2018-06-05T05:05:16.216Z,100579.00
2018-06-05T05:07:46.348Z,100576.00
2018-06-05T05:10:16.509Z,100578.00
2018-06-05T05:12:46.762Z,100581.00
2018-06-05T05:15:16.905Z,100582.00
2018-06-05T05:17:47.240Z,100587.00
2018-06-05T05:20:17.380Z,100587.00
2018-06-05T05:22:47.657Z,100588.00
2018-06-05T05:25:17.775Z,100592.00
2018-06-05T05:27:47.841Z,100596.00
2018-06-05T05:30:18.076Z,100591.00
2018-06-05T05:32:48.066Z,100584.00
2018-06-05T05:35:18.034Z,100582.00
2018-06-05T05:37:48.152Z,100579.00
2018-06-05T05:40:17.975Z,100578.00
2018-06-05T05:42:48.361Z,100572.00
2018-06-05T05:45:18.262Z,100563.00
2018-06-05T05:47:48.484Z,100567.00
2018-06-05T05:50:18.771Z,100571.00
2018-06-05T05:52:49.515Z,100570.00
2018-06-05T05:55:19.869Z,100572.00
2018-06-05T05:57:50.374Z,100575.00
2018-06-05T06:00:20.431Z,100579.00
2018-06-05T06:02:51.612Z,100584.00
2018-06-05T06:05:22.080Z,100590.00
2018-06-05T06:07:52.206Z,100592.00
2018-06-05T06:10:23.345Z,100593.00
2018-06-05T06:12:53.302Z,100592.00
2018-06-05T06:15:24.191Z,100589.00
2018-06-05T06:17:54.715Z,100591.00
2018-06-05T06:20:25.071Z,100593.00
2018-06-05T06:22:55.707Z,100594.00
2018-06-05T06:25:26.313Z,100597.00
2018-06-05T06:27:56.566Z,100600.00
2018-06-05T06:30:27.545Z,100601.00
2018-06-05T06:32:57.836Z,100602.00
2018-06-05T06:35:28.422Z,100610.00
2018-06-05T06:37:59.272Z,100612.00
2018-06-05T06:40:29.407Z,100611.00
2018-06-05T06:42:59.705Z,100612.00
2018-06-05T06:45:30.116Z,100617.00
2018-06-05T06:48:01.018Z,100615.00
2018-06-05T06:50:31.312Z,100620.00
2018-06-05T06:53:01.896Z,100618.00
2018-06-05T06:55:32.515Z,100617.00
2018-06-05T06:58:02.734Z,100622.00
2018-06-05T07:00:33.352Z,100617.00
2018-06-05T07:03:03.718Z,100622.00
2018-06-05T07:05:33.872Z,100619.00
2018-06-05T07:08:03.850Z,100615.00
2018-06-05T07:10:33.782Z,100613.00
2018-06-05T07:13:03.910Z,100614.00
2018-06-05T07:15:34.072Z,100616.00
2018-06-05T07:18:04.150Z,100624.00
2018-06-05T07:20:34.327Z,100622.00
2018-06-05T07:23:04.767Z,100624.00
2018-06-05T07:25:34.905Z,100629.00
2018-06-05T07:28:04.740Z,100622.00
2018-06-05T07:30:35.096Z,100622.00
2018-06-05T07:33:05.410Z,100618.00
2018-06-05T07:35:35.765Z,100622.00
2018-06-05T07:38:05.955Z,100631.00
2018-06-05T07:40:35.571Z,100628.00
2018-06-05T07:43:05.683Z,100629.00
2018-06-05T07:45:35.423Z,100628.00
2018-06-05T07:48:05.640Z,100625.00
2018-06-05T07:50:35.972Z,100618.00
2018-06-05T07:53:06.141Z,100625.00
2018-06-05T07:55:36.119Z,100626.00
2018-06-05T07:58:06.466Z,100631.00
2018-06-05T08:00:36.474Z,100634.00
2018-06-05T08:03:06.849Z,100635.00
2018-06-05T08:05:37.131Z,100638.00
2018-06-05T08:08:07.135Z,100631.00
2018-06-05T08:10:37.347Z,100624.00
2018-06-05T08:13:07.630Z,100624.00
2018-06-05T08:15:37.862Z,100629.00
2018-06-05T08:18:08.018Z,100628.00
2018-06-05T08:20:37.928Z,100632.00
2018-06-05T08:23:08.251Z,100629.00
2018-06-05T08:25:38.307Z,100630.00
2018-06-05T08:28:08.337Z,100628.00
2018-06-05T08:30:38.740Z,100630.00
2018-06-05T08:33:09.056Z,100625.00
2018-06-05T08:35:39.288Z,100634.00
2018-06-05T08:38:09.515Z,100639.00
2018-06-05T08:40:39.771Z,100644.00
2018-06-05T08:43:09.918Z,100645.00
2018-06-05T08:45:40.115Z,100641.00
2018-06-05T08:48:09.997Z,100643.00
2018-06-05T08:50:40.487Z,100640.00
2018-06-05T08:53:10.661Z,100641.00
2018-06-05T08:55:40.851Z,100647.00
2018-06-05T08:58:10.748Z,100645.00
2018-06-05T09:00:41.216Z,100651.00
2018-06-05T09:03:11.663Z,100651.00
2018-06-05T09:05:41.844Z,100651.00
2018-06-05T09:08:12.105Z,100655.00
2018-06-05T09:10:42.310Z,100648.00
2018-06-05T09:13:12.308Z,100655.00
2018-06-05T09:15:42.578Z,100651.00
2018-06-05T09:18:15.572Z,100655.00
2018-06-05T09:20:45.763Z,100652.00
2018-06-05T09:23:15.988Z,100656.00
2018-06-05T09:25:46.143Z,100655.00
2018-06-05T09:28:16.522Z,100658.00
2018-06-05T09:30:48.212Z,100659.00
2018-06-05T09:33:18.728Z,100657.00
2018-06-05T09:35:51.908Z,100659.00
2018-06-05T09:38:22.018Z,100655.00
2018-06-05T09:40:52.466Z,100665.00
2018-06-05T09:43:22.517Z,100665.00
2018-06-05T09:45:52.276Z,100667.00
2018-06-05T09:48:22.772Z,100666.00
2018-06-05T09:50:53.027Z,100662.00
2018-06-05T09:53:23.157Z,100663.00
2018-06-05T09:55:53.336Z,100667.00
2018-06-05T09:58:23.732Z,100665.00
2018-06-05T10:00:54.326Z,100665.00
2018-06-05T10:03:26.079Z,100661.00
2018-06-05T10:05:56.211Z,100663.00
2018-06-05T10:08:26.472Z,100666.00
2018-06-05T10:10:56.727Z,100676.00
2018-06-05T10:13:26.762Z,100672.00
2018-06-05T10:15:57.019Z,100673.00
2018-06-05T10:18:27.203Z,100669.00
2018-06-05T10:20:57.383Z,100667.00
2018-06-05T10:23:27.732Z,100666.00
2018-06-05T10:25:57.892Z,100666.00
2018-06-05T10:28:28.058Z,100668.00
2018-06-05T10:30:58.149Z,100663.00
2018-06-05T10:33:28.198Z,100659.00
2018-06-05T10:35:58.504Z,100659.00
2018-06-05T10:38:28.362Z,100659.00
2018-06-05T10:40:58.508Z,100658.00
2018-06-05T10:43:28.794Z,100652.00
2018-06-05T10:45:58.833Z,100652.00
2018-06-05T10:48:28.933Z,100652.00
2018-06-05T10:50:58.932Z,100651.00
2018-06-05T10:53:29.043Z,100644.00
2018-06-05T10:55:59.087Z,100647.00
2018-06-05T10:58:28.908Z,100643.00
2018-06-05T11:00:58.897Z,100642.00
2018-06-05T11:03:29.013Z,100648.00
2018-06-05T11:05:59.038Z,100649.00
2018-06-05T11:08:29.102Z,100649.00
2018-06-05T11:10:59.247Z,100653.00
2018-06-05T11:13:29.227Z,100643.00
2018-06-05T11:15:59.264Z,100643.00
2018-06-05T11:18:29.170Z,100633.00
2018-06-05T11:20:59.109Z,100637.00
2018-06-05T11:23:29.488Z,100642.00
2018-06-05T11:26:00.468Z,100640.00
2018-06-05T11:28:30.725Z,100637.00
2018-06-05T11:31:01.213Z,100633.00
2018-06-05T11:33:32.808Z,100632.00
2018-06-05T11:36:03.108Z,100627.00
2018-06-05T11:38:33.530Z,100632.00
2018-06-05T11:41:03.827Z,100637.00
2018-06-05T11:43:33.778Z,100634.00
2018-06-05T11:46:04.365Z,100635.00
2018-06-05T11:48:35.039Z,100638.00
2018-06-05T11:51:05.413Z,100635.00
2018-06-05T11:53:36.128Z,100629.00
2018-06-05T11:56:06.823Z,100631.00
2018-06-05T11:58:37.568Z,100624.00
2018-06-05T12:01:08.061Z,100627.00
2018-06-05T12:03:39.254Z,100621.00
2018-06-05T12:06:09.520Z,100627.00
2018-06-05T12:08:39.618Z,100623.00
2018-06-05T12:11:10.677Z,100618.00
2018-06-05T12:13:40.972Z,100619.00
2018-06-05T12:16:11.289Z,100615.00
2018-06-05T12:18:41.829Z,100612.00
2018-06-05T12:21:12.238Z,100611.00
2018-06-05T12:23:43.663Z,100610.00
2018-06-05T12:26:13.521Z,100608.00
2018-06-05T12:28:44.337Z,100611.00
2018-06-05T12:31:15.055Z,100606.00
2018-06-05T12:33:46.151Z,100607.00
2018-06-05T12:36:16.002Z,100603.00
2018-06-05T12:38:46.903Z,100601.00
2018-06-05T12:41:17.094Z,100599.00
2018-06-05T12:43:47.317Z,100596.00
2018-06-05T12:46:17.456Z,100598.00
2018-06-05T12:48:47.603Z,100593.00
2018-06-05T12:51:17.949Z,100594.00
2018-06-05T12:53:48.112Z,100590.00
2018-06-05T12:56:18.459Z,100586.00
2018-06-05T12:58:48.470Z,100586.00
2018-06-05T13:01:18.707Z,100585.00
2018-06-05T13:03:48.924Z,100585.00
2018-06-05T13:06:19.173Z,100582.00
2018-06-05T13:08:49.183Z,100579.00
2018-06-05T13:11:19.601Z,100583.00
2018-06-05T13:13:49.610Z,100583.00
2018-06-05T13:16:19.876Z,100579.00
2018-06-05T13:18:50.048Z,100584.00
2018-06-05T13:21:20.214Z,100576.00
2018-06-05T13:23:50.537Z,100581.00
2018-06-05T13:26:20.630Z,100576.00
2018-06-05T13:28:50.812Z,100578.00
2018-06-05T13:31:20.960Z,100577.00
2018-06-05T13:33:51.189Z,100578.00
2018-06-05T13:36:21.456Z,100572.00
2018-06-05T13:38:51.564Z,100573.00
2018-06-05T13:41:21.837Z,100575.00
2018-06-05T13:43:52.176Z,100568.00
2018-06-05T13:46:22.239Z,100569.00
2018-06-05T13:48:52.473Z,100570.00
2018-06-05T13:51:22.603Z,100559.00
2018-06-05T13:53:52.899Z,100565.00
2018-06-05T13:56:23.055Z,100558.00
2018-06-05T13:58:53.104Z,100553.00
2018-06-05T14:01:23.387Z,100551.00
2018-06-05T14:03:54.040Z,100556.00
2018-06-05T14:06:24.523Z,100552.00
2018-06-05T14:08:54.998Z,100546.00
2018-06-05T14:11:25.251Z,100541.00
2018-06-05T14:13:55.358Z,100537.00
2018-06-05T14:16:25.602Z,100540.00
2018-06-05T14:18:55.880Z,100540.00
2018-06-05T14:21:26.058Z,100541.00
2018-06-05T14:23:56.180Z,100535.00
2018-06-05T14:26:26.343Z,100530.00
2018-06-05T14:28:56.555Z,100521.00
2018-06-05T14:31:26.904Z,100517.00
2018-06-05T14:33:57.388Z,100519.00
2018-06-05T14:36:28.019Z,100512.00
2018-06-05T14:38:58.472Z,100506.00
2018-06-05T14:41:28.698Z,100506.00
2018-06-05T14:43:58.681Z,100502.00
2018-06-05T14:46:29.020Z,100500.00
2018-06-05T14:48:59.313Z,100496.00
2018-06-05T14:51:29.568Z,100497.00
2018-06-05T14:54:00.004Z,100499.00
2018-06-05T14:56:30.649Z,100493.00
2018-06-05T14:59:00.890Z,100487.00
2018-06-05T15:01:31.294Z,100488.00
2018-06-05T15:04:01.253Z,100486.00
2018-06-05T15:06:31.279Z,100482.00
2018-06-05T15:09:01.591Z,100484.00
2018-06-05T15:11:31.773Z,100478.00
2018-06-05T15:14:02.054Z,100473.00
2018-06-05T15:16:32.070Z,100476.00
2018-06-05T15:19:02.313Z,100471.00
2018-06-05T15:21:32.664Z,100476.00
2018-06-05T15:24:02.518Z,100469.00
2018-06-05T15:26:32.929Z,100471.00
2018-06-05T15:29:03.116Z,100469.00
2018-06-05T15:31:33.300Z,100467.00
2018-06-05T15:34:03.584Z,100467.00
2018-06-05T15:36:33.705Z,100457.00
2018-06-05T15:39:03.909Z,100462.00
2018-06-05T15:41:34.090Z,100465.00
2018-06-05T15:44:04.301Z,100465.00
2018-06-05T15:46:34.474Z,100460.00
2018-06-05T15:49:04.746Z,100459.00
2018-06-05T15:51:35.059Z,100453.00
2018-06-05T15:54:05.299Z,100449.00
2018-06-05T15:56:35.420Z,100449.00
2018-06-05T15:59:05.625Z,100450.00
2018-06-05T16:01:35.998Z,100450.00
2018-06-05T16:04:06.371Z,100447.00
2018-06-05T16:06:37.115Z,100456.00
2018-06-05T16:09:10.278Z,100454.00
2018-06-05T16:11:40.120Z,100452.00
2018-06-05T16:14:10.441Z,100443.00
2018-06-05T16:16:40.495Z,100434.00
2018-06-05T16:19:09.963Z,100431.00
2018-06-05T16:21:40.296Z,100430.00
2018-06-05T16:24:10.319Z,100426.00
2018-06-05T16:26:40.680Z,100426.00
2018-06-05T16:29:10.853Z,100421.00
2018-06-05T16:31:40.994Z,100420.00
2018-06-05T16:34:11.036Z,100421.00
2018-06-05T16:36:41.228Z,100414.00
2018-06-05T16:39:18.123Z,100420.00
2018-06-05T16:41:48.443Z,100414.00
2018-06-05T16:44:18.652Z,100419.00
2018-06-05T16:46:48.695Z,100420.00
2018-06-05T16:49:19.198Z,100421.00
2018-06-05T16:51:49.433Z,100421.00
2018-06-05T16:54:19.593Z,100421.00
2018-06-05T16:56:50.000Z,100427.00
2018-06-05T16:59:20.228Z,100427.00
2018-06-05T17:01:50.441Z,100427.00
2018-06-05T17:04:20.600Z,100423.00
2018-06-05T17:06:50.980Z,100427.00
2018-06-05T17:09:21.646Z,100426.00
2018-06-05T17:11:51.968Z,100429.00
2018-06-05T17:14:22.006Z,100429.00
2018-06-05T17:16:52.222Z,100432.00
2018-06-05T17:19:22.433Z,100433.00
2018-06-05T17:21:52.723Z,100428.00
2018-06-05T17:24:23.078Z,100433.00
2018-06-05T17:26:53.225Z,100429.00
2018-06-05T17:29:23.288Z,100436.00
2018-06-05T17:31:53.653Z,100429.00
2018-06-05T17:34:23.595Z,100427.00
2018-06-05T17:36:53.943Z,100425.00
2018-06-05T17:39:24.998Z,100429.00
2018-06-05T17:41:55.208Z,100429.00
2018-06-05T17:44:25.298Z,100433.00
2018-06-05T17:46:56.210Z,100441.00
2018-06-05T17:49:26.697Z,100439.00
2018-06-05T17:51:57.219Z,100445.00
2018-06-05T17:54:28.088Z,100443.00
2018-06-05T17:56:58.476Z,100441.00
2018-06-05T17:59:28.996Z,100442.00
2018-06-05T18:01:59.658Z,100440.00
2018-06-05T18:04:30.120Z,100441.00
2018-06-05T18:07:00.968Z,100440.00
2018-06-05T18:09:31.146Z,100442.00
2018-06-05T18:12:01.950Z,100441.00
2018-06-05T18:14:32.214Z,100445.00
2018-06-05T18:17:03.071Z,100451.00
2018-06-05T18:19:33.564Z,100454.00
2018-06-05T18:22:04.636Z,100451.00
2018-06-05T18:24:34.857Z,100452.00
2018-06-05T18:27:05.868Z,100453.00
2018-06-05T18:29:36.829Z,100458.00
2018-06-05T18:32:06.985Z,100464.00
2018-06-05T18:34:37.766Z,100470.00
2018-06-05T18:37:08.419Z,100472.00
2018-06-05T18:39:38.593Z,100470.00
2018-06-05T18:42:08.685Z,100474.00
2018-06-05T18:44:38.828Z,100473.00
2018-06-05T18:47:08.616Z,100478.00
2018-06-05T18:49:38.864Z,100473.00
2018-06-05T18:52:09.465Z,100478.00
2018-06-05T18:54:39.975Z,100485.00
2018-06-05T18:57:10.016Z,100481.00
2018-06-05T18:59:40.528Z,100483.00
2018-06-05T19:02:10.799Z,100480.00
2018-06-05T19:04:40.374Z,100485.00
2018-06-05T19:07:10.712Z,100492.00
2018-06-05T19:09:41.011Z,100491.00
2018-06-05T19:12:11.350Z,100492.00
2018-06-05T19:14:41.269Z,100490.00
2018-06-05T19:17:11.504Z,100495.00
2018-06-05T19:19:41.541Z,100497.00
2018-06-05T19:22:11.866Z,100501.00
2018-06-05T19:24:42.113Z,100504.00
2018-06-05T19:27:12.660Z,100505.00
2018-06-05T19:29:43.098Z,100503.00
2018-06-05T19:32:13.701Z,100504.00
2018-06-05T19:34:43.814Z,100502.00
2018-06-05T19:37:14.118Z,100501.00
2018-06-05T19:39:44.317Z,100506.00
2018-06-05T19:42:14.587Z,100510.00
2018-06-05T19:44:44.669Z,100509.00
2018-06-05T19:47:14.795Z,100517.00
2018-06-05T19:49:44.838Z,100521.00
2018-06-05T19:52:15.126Z,100527.00
2018-06-05T19:54:45.319Z,100526.00
2018-06-05T19:57:15.508Z,100531.00
2018-06-05T19:59:45.789Z,100533.00
2018-06-05T20:02:15.929Z,100535.00
2018-06-05T20:04:46.167Z,100536.00
2018-06-05T20:07:16.417Z,100536.00
2018-06-05T20:09:46.584Z,100533.00
2018-06-05T20:12:16.517Z,100535.00
2018-06-05T20:14:46.648Z,100541.00
2018-06-05T20:17:16.806Z,100551.00
2018-06-05T20:19:46.767Z,100548.00
2018-06-05T20:22:16.617Z,100548.00
2018-06-05T20:24:46.819Z,100549.00
2018-06-05T20:27:16.980Z,100541.00
2018-06-05T20:29:47.183Z,100542.00
2018-06-05T20:32:17.322Z,100550.00
2018-06-05T20:34:47.654Z,100547.00
2018-06-05T20:37:17.659Z,100544.00
2018-06-05T20:39:47.924Z,100546.00
2018-06-05T20:42:18.109Z,100551.00
2018-06-05T20:44:48.349Z,100548.00
2018-06-05T20:47:18.395Z,100550.00
2018-06-05T20:49:48.538Z,100556.00
2018-06-05T20:52:18.924Z,100561.00
2018-06-05T20:54:49.185Z,100571.00
2018-06-05T20:57:19.504Z,100571.00
2018-06-05T20:59:49.596Z,100570.00
2018-06-05T21:02:20.023Z,100569.00
2018-06-05T21:04:50.249Z,100572.00
2018-06-05T21:07:20.504Z,100567.00
2018-06-05T21:09:50.695Z,100564.00
2018-06-05T21:12:20.965Z,100566.00
2018-06-05T21:14:50.998Z,100567.00
2018-06-05T21:17:21.236Z,100565.00
2018-06-05T21:19:51.316Z,100570.00
2018-06-05T21:22:21.249Z,100574.00
2018-06-05T21:24:51.304Z,100572.00
2018-06-05T21:27:21.732Z,100571.00
2018-06-05T21:29:51.781Z,100573.00
2018-06-05T21:32:21.925Z,100574.00
2018-06-05T21:34:52.164Z,100580.00
2018-06-05T21:37:22.355Z,100579.00
2018-06-05T21:39:52.514Z,100582.00
2018-06-05T21:42:22.805Z,100585.00
2018-06-05T21:44:52.998Z,100589.00
2018-06-05T21:47:23.149Z,100584.00
2018-06-05T21:49:53.399Z,100585.00
2018-06-05T21:52:23.499Z,100594.00
2018-06-05T21:54:53.835Z,100593.00
2018-06-05T21:57:24.064Z,100592.00
2018-06-05T21:59:54.104Z,100589.00
2018-06-05T22:02:24.185Z,100591.00
2018-06-05T22:04:54.017Z,100588.00
2018-06-05T22:07:24.539Z,100592.00
2018-06-05T22:09:55.260Z,100591.00
2018-06-05T22:12:25.649Z,100592.00
2018-06-05T22:14:56.197Z,100585.00
2018-06-05T22:17:26.444Z,100581.00
2018-06-05T22:19:57.264Z,100580.00
2018-06-05T22:22:27.531Z,100572.00
2018-06-05T22:24:58.041Z,100573.00
2018-06-05T22:27:28.711Z,100572.00
2018-06-05T22:29:59.336Z,100575.00
2018-06-05T22:32:29.851Z,100570.00
2018-06-05T22:35:00.492Z,100579.00
2018-06-05T22:37:30.813Z,100575.00
2018-06-05T22:40:00.620Z,100570.00
2018-06-05T22:42:31.591Z,100572.00
2018-06-05T22:45:05.281Z,100571.00
2018-06-05T22:47:35.647Z,100569.00
2018-06-05T22:50:05.772Z,100569.00
2018-06-05T22:52:35.860Z,100569.00
2018-06-05T22:55:06.287Z,100564.00
2018-06-05T22:57:36.316Z,100566.00
2018-06-05T23:00:06.517Z,100565.00
2018-06-05T23:02:36.921Z,100565.00
2018-06-05T23:05:07.046Z,100566.00
2018-06-05T23:07:37.315Z,100570.00
2018-06-05T23:10:07.280Z,100563.00
2018-06-05T23:12:37.424Z,100566.00
2018-06-05T23:15:07.577Z,100570.00
2018-06-05T23:17:37.951Z,100563.00
2018-06-05T23:20:08.091Z,100556.00
2018-06-05T23:22:37.986Z,100557.00
2018-06-05T23:25:08.156Z,100555.00
2018-06-05T23:27:38.889Z,100554.00
2018-06-05T23:30:08.927Z,100560.00
2018-06-05T23:32:39.059Z,100556.00
2018-06-05T23:35:08.609Z,100561.00
2018-06-05T23:37:38.612Z,100563.00
2018-06-05T23:40:08.966Z,100562.00
2018-06-05T23:42:38.977Z,100561.00
2018-06-05T23:45:09.076Z,100563.00
2018-06-05T23:47:39.432Z,100565.00
2018-06-05T23:50:09.395Z,100561.00
2018-06-05T23:52:39.820Z,100568.00
2018-06-05T23:55:09.912Z,100568.00
2018-06-05T23:57:39.878Z,100565.00
